createdAt,value
2019-04-04T00:02:17.071Z,7.70
2019-04-04T00:04:48.291Z,7.70
2019-04-04T00:07:18.135Z,7.70
2019-04-04T00:09:47.998Z,7.70
2019-04-04T00:12:17.931Z,7.70
2019-04-04T00:14:47.775Z,7.70
2019-04-04T00:17:17.631Z,7.80
2019-04-04T00:19:47.544Z,7.80
2019-04-04T00:22:17.530Z,7.80
2019-04-04T00:24:47.488Z,7.70
2019-04-04T00:27:17.408Z,7.70
2019-04-04T00:29:48.072Z,7.70
2019-04-04T00:32:20.659Z,7.70
2019-04-04T00:34:50.121Z,7.70
2019-04-04T00:37:20.136Z,7.70
2019-04-04T00:39:50.003Z,7.80
2019-04-04T00:42:20.037Z,7.80
2019-04-04T00:44:49.961Z,7.80
2019-04-04T00:47:19.905Z,7.90
2019-04-04T00:49:49.873Z,7.90
2019-04-04T00:52:19.843Z,7.90
2019-04-04T00:54:49.795Z,7.90
2019-04-04T00:57:20.673Z,7.80
2019-04-04T00:59:53.365Z,7.90
2019-04-04T01:02:22.115Z,7.90
2019-04-04T01:05:01.138Z,7.90
2019-04-04T01:07:31.262Z,7.90
2019-04-04T01:10:01.112Z,7.90
2019-04-04T01:12:31.135Z,7.90
2019-04-04T01:15:01.170Z,7.90
2019-04-04T01:17:33.024Z,7.80
2019-04-04T01:20:05.356Z,7.70
2019-04-04T01:22:35.289Z,7.70
2019-04-04T01:25:06.995Z,7.70
2019-04-04T01:27:37.659Z,7.60
2019-04-04T01:30:08.359Z,7.60
2019-04-04T01:32:38.336Z,7.70
2019-04-04T01:35:08.501Z,7.60
2019-04-04T01:37:38.388Z,7.60
2019-04-04T01:40:08.709Z,7.60
2019-04-04T01:42:38.950Z,7.70
2019-04-04T01:45:12.874Z,7.70
2019-04-04T01:47:40.874Z,7.70
2019-04-04T01:50:11.150Z,7.60
2019-04-04T01:52:41.004Z,7.60
2019-04-04T01:55:10.840Z,7.70
2019-04-04T01:57:40.691Z,7.60
2019-04-04T02:00:14.726Z,7.70
2019-04-04T02:02:43.589Z,7.70
2019-04-04T02:05:13.694Z,7.70
2019-04-04T02:07:43.627Z,7.80
2019-04-04T02:10:14.031Z,7.80
2019-04-04T02:12:43.946Z,7.70
2019-04-04T02:15:14.786Z,7.50
2019-04-04T02:17:44.863Z,7.60
2019-04-04T02:20:14.785Z,7.60
2019-04-04T02:22:44.775Z,7.70
2019-04-04T02:25:14.696Z,7.50
2019-04-04T02:27:44.611Z,7.50
2019-04-04T02:30:16.289Z,7.50
2019-04-04T02:32:46.540Z,7.50
2019-04-04T02:35:16.453Z,7.40
2019-04-04T02:37:46.388Z,7.40
2019-04-04T02:40:16.480Z,7.40
2019-04-04T02:42:46.422Z,7.40
2019-04-04T02:45:16.407Z,7.40
2019-04-04T02:47:50.201Z,7.40
2019-04-04T02:50:17.811Z,7.50
2019-04-04T02:52:47.690Z,7.50
2019-04-04T02:55:17.604Z,7.50
2019-04-04T02:57:47.540Z,7.40
2019-04-04T03:00:17.856Z,7.20
2019-04-04T03:02:47.819Z,7.10
2019-04-04T03:05:19.255Z,7.10
2019-04-04T03:07:49.304Z,7.10
2019-04-04T03:10:19.247Z,7.10
2019-04-04T03:12:49.175Z,7.10
2019-04-04T03:15:19.101Z,7.20
2019-04-04T03:17:49.079Z,7.20
2019-04-04T03:20:18.914Z,7.20
2019-04-04T03:22:48.853Z,7.10
2019-04-04T03:25:18.704Z,7.00
2019-04-04T03:27:48.577Z,7.10
2019-04-04T03:30:18.551Z,7.10
2019-04-04T03:32:53.879Z,7.00
2019-04-04T03:35:26.003Z,7.00
2019-04-04T03:37:51.590Z,7.00
2019-04-04T03:40:24.646Z,7.00
2019-04-04T03:42:53.068Z,6.90
2019-04-04T03:45:26.212Z,6.90
2019-04-04T03:47:54.495Z,6.90
2019-04-04T03:50:30.122Z,6.90
2019-04-04T03:52:58.569Z,6.90
2019-04-04T03:55:28.690Z,6.80
2019-04-04T03:57:58.786Z,6.90
2019-04-04T04:00:30.536Z,7.00
2019-04-04T04:03:00.531Z,7.10
2019-04-04T04:05:35.553Z,7.00
2019-04-04T04:08:03.158Z,6.90
2019-04-04T04:10:33.854Z,7.00
2019-04-04T04:13:05.070Z,7.10
2019-04-04T04:15:35.064Z,7.10
2019-04-04T04:18:05.030Z,7.10
2019-04-04T04:20:37.559Z,7.10
2019-04-04T04:23:06.533Z,7.00
2019-04-04T04:25:36.824Z,7.10
2019-04-04T04:28:06.994Z,7.10
2019-04-04T04:30:40.504Z,7.10
2019-04-04T04:33:08.485Z,7.20
2019-04-04T04:35:41.991Z,7.20
2019-04-04T04:38:10.968Z,7.20
2019-04-04T04:40:40.897Z,7.20
2019-04-04T04:43:10.770Z,7.20
2019-04-04T04:45:43.893Z,7.10
2019-04-04T04:48:12.270Z,7.20
2019-04-04T04:50:42.312Z,7.20
2019-04-04T04:53:12.370Z,7.20
2019-04-04T04:55:42.487Z,7.20
2019-04-04T04:58:13.304Z,7.20
2019-04-04T05:00:43.278Z,7.20
2019-04-04T05:03:14.938Z,7.20
2019-04-04T05:05:44.868Z,7.20
2019-04-04T05:08:27.314Z,7.20
2019-04-04T05:10:57.179Z,7.10
2019-04-04T05:13:28.778Z,7.20
2019-04-04T05:15:58.875Z,7.20
2019-04-04T05:18:28.813Z,7.10
2019-04-04T05:21:01.467Z,7.10
2019-04-04T05:23:30.252Z,7.20
2019-04-04T05:26:02.684Z,7.10
2019-04-04T05:28:31.675Z,7.10
2019-04-04T05:31:01.631Z,7.10
2019-04-04T05:33:31.759Z,7.20
2019-04-04T05:36:04.846Z,7.20
2019-04-04T05:38:33.268Z,7.20
2019-04-04T05:41:03.169Z,7.20
2019-04-04T05:43:33.101Z,7.20
2019-04-04T05:46:03.088Z,7.20
2019-04-04T05:48:33.023Z,7.30
2019-04-04T05:51:02.964Z,7.40
2019-04-04T05:53:35.031Z,7.50
2019-04-04T05:56:06.538Z,7.50
2019-04-04T05:58:36.714Z,7.50
2019-04-04T06:01:08.375Z,7.60
2019-04-04T06:03:38.283Z,7.70
2019-04-04T06:06:10.542Z,7.70
2019-04-04T06:08:43.110Z,7.70
2019-04-04T06:11:11.359Z,7.70
2019-04-04T06:13:41.230Z,7.80
2019-04-04T06:16:11.176Z,7.80
2019-04-04T06:18:42.986Z,7.80
2019-04-04T06:21:12.756Z,7.90
2019-04-04T06:23:42.648Z,8.00
2019-04-04T06:26:12.519Z,8.10
2019-04-04T06:28:44.253Z,8.00
2019-04-04T06:31:14.063Z,8.00
2019-04-04T06:33:44.027Z,8.10
2019-04-04T06:36:17.607Z,8.40
2019-04-04T06:38:46.055Z,8.50
2019-04-04T06:41:16.037Z,8.70
2019-04-04T06:43:45.967Z,8.80
2019-04-04T06:46:18.968Z,8.90
2019-04-04T06:48:47.470Z,9.10
2019-04-04T06:51:17.416Z,9.00
2019-04-04T06:53:47.329Z,9.10
2019-04-04T06:56:17.249Z,9.30
2019-04-04T06:58:47.145Z,9.40
2019-04-04T07:01:18.936Z,9.60
2019-04-04T07:03:48.645Z,9.60
2019-04-04T07:06:18.673Z,10.00
2019-04-04T07:08:48.570Z,10.40
2019-04-04T07:11:21.476Z,11.00
2019-04-04T07:13:50.143Z,11.60
2019-04-04T07:16:20.092Z,11.80
2019-04-04T07:18:50.043Z,12.50
2019-04-04T07:21:20.608Z,12.80
2019-04-04T07:23:50.536Z,12.80
2019-04-04T07:26:20.406Z,12.90
2019-04-04T07:28:53.746Z,13.10
2019-04-04T07:31:22.021Z,12.50
2019-04-04T07:33:51.896Z,12.40
2019-04-04T07:36:22.843Z,12.30
2019-04-04T07:38:52.708Z,12.50
2019-04-04T07:41:22.592Z,12.70
2019-04-04T07:43:52.524Z,12.70
2019-04-04T07:46:22.540Z,12.90
2019-04-04T07:48:52.537Z,13.10
2019-04-04T07:51:22.437Z,13.20
2019-04-04T07:53:52.285Z,13.30
2019-04-04T07:56:22.159Z,13.00
2019-04-04T07:58:52.210Z,13.20
2019-04-04T08:01:22.149Z,13.60
2019-04-04T08:03:52.127Z,13.90
2019-04-04T08:06:22.043Z,13.30
2019-04-04T08:08:52.964Z,12.90
2019-04-04T08:11:22.896Z,13.20
2019-04-04T08:13:52.797Z,13.60
2019-04-04T08:16:22.757Z,14.00
2019-04-04T08:18:52.713Z,14.40
2019-04-04T08:21:22.676Z,14.80
2019-04-04T08:23:52.638Z,15.10
2019-04-04T08:26:22.644Z,15.60
2019-04-04T08:28:52.671Z,15.90
2019-04-04T08:31:22.540Z,16.30
2019-04-04T08:33:52.502Z,15.90
2019-04-04T08:36:22.437Z,16.30
2019-04-04T08:38:52.313Z,16.80
2019-04-04T08:41:22.165Z,16.50
2019-04-04T08:43:52.027Z,17.00
2019-04-04T08:46:22.024Z,17.40
2019-04-04T08:48:51.922Z,17.50
2019-04-04T08:51:21.855Z,17.10
2019-04-04T08:53:51.847Z,16.30
2019-04-04T08:56:21.750Z,16.60
2019-04-04T08:58:52.716Z,17.40
2019-04-04T09:01:22.706Z,18.20
2019-04-04T09:03:52.611Z,19.00
2019-04-04T09:06:22.488Z,18.90
2019-04-04T09:08:52.517Z,19.60
2019-04-04T09:11:22.570Z,19.80
2019-04-04T09:13:52.499Z,20.00
2019-04-04T09:16:22.469Z,20.60
2019-04-04T09:18:52.400Z,21.30
2019-04-04T09:21:22.349Z,21.50
2019-04-04T09:23:52.310Z,21.30
2019-04-04T09:26:22.205Z,21.00
2019-04-04T09:28:52.526Z,21.50
2019-04-04T09:31:22.616Z,21.80
2019-04-04T09:33:52.555Z,22.50
2019-04-04T09:36:22.437Z,22.70
2019-04-04T09:38:52.288Z,24.10
2019-04-04T09:41:22.170Z,25.30
2019-04-04T09:43:52.113Z,26.20
2019-04-04T09:46:22.084Z,26.70
2019-04-04T09:48:52.029Z,27.50
2019-04-04T09:51:21.987Z,27.50
2019-04-04T09:53:53.218Z,26.80
2019-04-04T09:56:23.410Z,27.20
2019-04-04T09:58:54.982Z,27.40
2019-04-04T10:01:24.860Z,27.20
2019-04-04T10:03:54.785Z,27.00
2019-04-04T10:06:24.708Z,26.90
2019-04-04T10:08:54.669Z,26.00
2019-04-04T10:11:24.615Z,25.30
2019-04-04T10:13:54.624Z,24.60
2019-04-04T10:16:24.513Z,23.50
2019-04-04T10:18:55.466Z,22.60
2019-04-04T10:21:25.431Z,21.70
2019-04-04T10:23:55.394Z,21.20
2019-04-04T10:26:25.383Z,20.80
2019-04-04T10:28:56.305Z,19.60
2019-04-04T10:31:26.239Z,19.20
2019-04-04T10:33:56.124Z,18.80
2019-04-04T10:36:26.066Z,17.80
2019-04-04T10:38:56.037Z,17.50
2019-04-04T10:41:25.910Z,17.60
2019-04-04T10:43:55.945Z,17.40
2019-04-04T10:46:26.848Z,17.50
2019-04-04T10:48:56.731Z,17.50
2019-04-04T10:51:26.617Z,17.60
2019-04-04T10:53:56.590Z,17.80
2019-04-04T10:56:26.525Z,18.60
2019-04-04T10:58:56.466Z,19.10
2019-04-04T11:01:26.335Z,19.00
2019-04-04T11:03:56.201Z,19.20
2019-04-04T11:06:26.163Z,19.50
2019-04-04T11:08:56.140Z,20.30
2019-04-04T11:11:26.031Z,21.00
2019-04-04T11:13:55.985Z,21.30
2019-04-04T11:16:30.250Z,20.60
2019-04-04T11:18:57.541Z,20.70
2019-04-04T11:21:27.494Z,21.10
2019-04-04T11:23:58.561Z,21.40
2019-04-04T11:26:28.444Z,21.20
2019-04-04T11:28:58.319Z,21.30
2019-04-04T11:31:28.292Z,21.00
2019-04-04T11:33:58.237Z,20.40
2019-04-04T11:36:28.171Z,19.90
2019-04-04T11:38:58.249Z,19.40
2019-04-04T11:41:28.298Z,19.00
2019-04-04T11:43:58.214Z,18.10
2019-04-04T11:46:28.180Z,17.70
2019-04-04T11:48:58.054Z,17.70
2019-04-04T11:51:27.978Z,17.90
2019-04-04T11:53:57.898Z,18.30
2019-04-04T11:56:27.776Z,19.20
2019-04-04T11:58:57.891Z,19.60
2019-04-04T12:01:29.674Z,19.60
2019-04-04T12:03:59.588Z,18.90
2019-04-04T12:06:29.547Z,18.40
2019-04-04T12:08:59.484Z,18.10
2019-04-04T12:11:29.457Z,17.80
2019-04-04T12:13:59.832Z,17.60
2019-04-04T12:16:32.620Z,17.40
2019-04-04T12:19:01.465Z,17.20
2019-04-04T12:21:31.361Z,17.30
2019-04-04T12:24:01.412Z,17.50
2019-04-04T12:26:31.509Z,17.90
2019-04-04T12:29:01.364Z,18.40
2019-04-04T12:31:31.253Z,19.10
2019-04-04T12:34:02.253Z,19.20
2019-04-04T12:36:32.306Z,19.00
2019-04-04T12:39:02.207Z,18.80
2019-04-04T12:41:33.733Z,18.60
2019-04-04T12:44:03.944Z,18.00
2019-04-04T12:46:47.637Z,17.80
2019-04-04T12:49:17.580Z,17.50
2019-04-04T12:51:47.538Z,17.20
2019-04-04T12:54:17.454Z,17.00
2019-04-04T12:56:47.439Z,16.80
2019-04-04T12:59:17.379Z,16.60
2019-04-04T13:01:47.281Z,16.30
2019-04-04T13:04:17.266Z,15.80
2019-04-04T13:06:47.169Z,15.70
2019-04-04T13:09:17.107Z,15.80
2019-04-04T13:11:53.046Z,15.90
2019-04-04T13:14:22.986Z,16.10
2019-04-04T13:16:52.977Z,16.30
2019-04-04T13:19:22.887Z,16.50
2019-04-04T13:21:52.842Z,17.20
2019-04-04T13:24:22.842Z,17.50
2019-04-04T13:26:52.755Z,17.80
2019-04-04T13:29:28.731Z,17.90
2019-04-04T13:31:58.664Z,17.20
2019-04-04T13:34:28.609Z,17.20
2019-04-04T13:36:58.547Z,17.40
2019-04-04T13:39:28.449Z,17.20
2019-04-04T13:41:58.377Z,17.30
2019-04-04T13:44:28.333Z,17.20
2019-04-04T13:46:58.209Z,17.10
2019-04-04T13:49:28.158Z,16.90
2019-04-04T13:51:58.103Z,16.50
2019-04-04T13:54:28.048Z,15.90
2019-04-04T13:56:57.920Z,15.80
2019-04-04T13:59:27.792Z,15.80
2019-04-04T14:01:57.819Z,15.50
2019-04-04T14:04:28.733Z,15.30
2019-04-04T14:06:58.683Z,14.80
2019-04-04T14:09:28.558Z,14.50
2019-04-04T14:11:58.509Z,14.40
2019-04-04T14:14:28.431Z,14.40
2019-04-04T14:16:58.396Z,14.20
2019-04-04T14:19:28.264Z,13.90
2019-04-04T14:21:58.242Z,13.70
2019-04-04T14:24:28.179Z,13.50
2019-04-04T14:26:58.029Z,13.20
2019-04-04T14:29:28.196Z,13.00
2019-04-04T14:31:58.215Z,12.80
2019-04-04T14:34:28.169Z,12.20
2019-04-04T14:36:58.155Z,12.20
2019-04-04T14:39:28.043Z,12.20
2019-04-04T14:41:58.057Z,12.20
2019-04-04T14:44:30.030Z,12.10
2019-04-04T14:46:59.619Z,12.10
2019-04-04T14:49:29.530Z,12.10
2019-04-04T14:51:59.466Z,12.00
2019-04-04T14:54:29.948Z,11.90
2019-04-04T14:56:59.977Z,11.90
2019-04-04T14:59:29.984Z,11.70
2019-04-04T15:02:00.087Z,11.60
2019-04-04T15:04:30.098Z,11.70
2019-04-04T15:07:00.001Z,11.60
2019-04-04T15:09:29.920Z,11.60
2019-04-04T15:11:59.789Z,11.60
2019-04-04T15:14:31.532Z,11.40
2019-04-04T15:17:01.449Z,11.50
2019-04-04T15:19:31.389Z,11.30
2019-04-04T15:22:01.299Z,11.30
2019-04-04T15:24:32.140Z,11.30
2019-04-04T15:27:02.067Z,11.30
2019-04-04T15:29:31.939Z,11.30
2019-04-04T15:32:01.871Z,11.30
2019-04-04T15:34:31.822Z,11.20
2019-04-04T15:37:01.688Z,11.20
2019-04-04T15:39:32.609Z,11.20
2019-04-04T15:42:03.052Z,11.20
2019-04-04T15:44:33.070Z,11.00
2019-04-04T15:47:02.998Z,10.90
2019-04-04T15:49:32.941Z,10.80
2019-04-04T15:52:02.873Z,10.60
2019-04-04T15:54:32.819Z,10.50
2019-04-04T15:57:02.739Z,10.60
2019-04-04T15:59:32.617Z,10.70
2019-04-04T16:02:02.624Z,10.50
2019-04-04T16:04:32.564Z,10.50
2019-04-04T16:07:02.567Z,10.60
2019-04-04T16:09:32.513Z,10.60
2019-04-04T16:12:02.381Z,10.70
2019-04-04T16:14:32.472Z,10.60
2019-04-04T16:17:02.338Z,10.40
2019-04-04T16:19:32.305Z,10.30
2019-04-04T16:22:02.223Z,10.30
2019-04-04T16:24:32.104Z,10.30
2019-04-04T16:27:01.969Z,10.20
2019-04-04T16:29:31.923Z,10.10
2019-04-04T16:32:01.880Z,10.00
2019-04-04T16:34:31.817Z,10.00
2019-04-04T16:37:02.901Z,10.00
2019-04-04T16:39:35.279Z,10.00
2019-04-04T16:42:04.479Z,10.10
2019-04-04T16:44:34.441Z,10.10
2019-04-04T16:47:04.447Z,10.00
2019-04-04T16:49:34.326Z,10.00
2019-04-04T16:52:07.059Z,10.00
2019-04-04T16:54:35.795Z,9.90
2019-04-04T16:57:06.743Z,9.90
2019-04-04T16:59:36.699Z,9.80
2019-04-04T17:02:06.612Z,9.80
2019-04-04T17:04:36.439Z,9.50
2019-04-04T17:07:06.340Z,9.50
2019-04-04T17:09:36.249Z,9.50
2019-04-04T17:12:14.909Z,9.50
2019-04-04T17:14:37.738Z,9.50
2019-04-04T17:17:07.630Z,9.50
2019-04-04T17:19:37.516Z,9.30
2019-04-04T17:22:07.413Z,9.30
2019-04-04T17:24:37.272Z,9.30
2019-04-04T17:27:07.134Z,9.20
2019-04-04T17:29:37.015Z,9.20
2019-04-04T17:32:06.951Z,9.20
2019-04-04T17:34:37.731Z,9.10
2019-04-04T17:37:07.682Z,9.10
2019-04-04T17:39:37.677Z,9.10
2019-04-04T17:42:07.718Z,9.00
2019-04-04T17:44:37.639Z,9.00
2019-04-04T17:47:07.684Z,9.00
2019-04-04T17:49:37.577Z,8.90
2019-04-04T17:52:07.895Z,8.90
2019-04-04T17:54:38.264Z,8.70
2019-04-04T17:57:08.700Z,8.80
2019-04-04T17:59:38.677Z,8.80
2019-04-04T18:02:08.618Z,8.80
2019-04-04T18:04:47.797Z,8.90
2019-04-04T18:07:10.171Z,8.80
2019-04-04T18:09:40.097Z,8.80
2019-04-04T18:12:10.122Z,8.80
2019-04-04T18:14:40.045Z,8.80
2019-04-04T18:17:09.997Z,8.80
2019-04-04T18:19:39.954Z,8.80
2019-04-04T18:22:09.969Z,8.60
2019-04-04T18:24:39.839Z,8.70
2019-04-04T18:27:09.769Z,8.60
2019-04-04T18:29:39.735Z,8.60
2019-04-04T18:32:09.695Z,8.40
2019-04-04T18:34:39.593Z,8.40
2019-04-04T18:37:09.512Z,8.50
2019-04-04T18:39:39.504Z,8.40
2019-04-04T18:42:09.446Z,8.40
2019-04-04T18:44:39.396Z,8.50
2019-04-04T18:47:10.352Z,8.50
2019-04-04T18:49:40.503Z,8.20
2019-04-04T18:52:10.498Z,8.20
2019-04-04T18:54:40.496Z,8.20
2019-04-04T18:57:13.099Z,8.20
2019-04-04T18:59:42.512Z,8.30
2019-04-04T19:02:13.424Z,8.30
2019-04-04T19:04:43.497Z,8.30
2019-04-04T19:07:13.502Z,8.30
2019-04-04T19:09:43.526Z,8.30
2019-04-04T19:12:14.376Z,8.30
2019-04-04T19:14:44.446Z,8.30
2019-04-04T19:17:15.386Z,8.30
2019-04-04T19:19:46.179Z,8.30
2019-04-04T19:22:16.447Z,8.10
2019-04-04T19:24:47.147Z,8.10
2019-04-04T19:27:17.080Z,8.00
2019-04-04T19:29:48.185Z,8.10
2019-04-04T19:32:18.241Z,8.10
2019-04-04T19:34:48.508Z,8.00
2019-04-04T19:37:19.110Z,8.00
2019-04-04T19:39:49.258Z,8.00
2019-04-04T19:42:19.283Z,7.90
2019-04-04T19:44:53.403Z,7.90
2019-04-04T19:47:22.983Z,7.90
2019-04-04T19:49:53.272Z,7.90
2019-04-04T19:52:24.236Z,7.80
2019-04-04T19:54:54.547Z,7.90
2019-04-04T19:57:37.009Z,7.80
2019-04-04T20:00:12.802Z,7.60
2019-04-04T20:02:44.155Z,7.80
2019-04-04T20:05:15.148Z,7.90
2019-04-04T20:07:46.124Z,7.90
2019-04-04T20:10:17.622Z,7.80
2019-04-04T20:12:47.695Z,7.80
2019-04-04T20:15:17.984Z,7.90
2019-04-04T20:17:47.865Z,7.90
2019-04-04T20:20:17.794Z,7.80
2019-04-04T20:22:48.621Z,7.80
2019-04-04T20:25:18.940Z,7.70
2019-04-04T20:27:55.056Z,7.80
2019-04-04T20:30:36.332Z,7.70
2019-04-04T20:33:07.480Z,7.60
2019-04-04T20:35:38.057Z,7.60
2019-04-04T20:38:08.032Z,7.60
2019-04-04T20:40:38.149Z,7.60
2019-04-04T20:43:09.437Z,7.60
2019-04-04T20:45:39.737Z,7.60
2019-04-04T20:48:09.889Z,7.50
2019-04-04T20:50:40.038Z,7.40
2019-04-04T20:53:10.292Z,7.50
2019-04-04T20:55:40.215Z,7.50
2019-04-04T20:58:10.104Z,7.50
2019-04-04T21:00:40.019Z,7.50
2019-04-04T21:03:09.894Z,7.50
2019-04-04T21:05:39.878Z,7.50
2019-04-04T21:08:09.792Z,7.50
2019-04-04T21:10:39.779Z,7.60
2019-04-04T21:13:09.700Z,7.60
2019-04-04T21:15:39.571Z,7.50
2019-04-04T21:18:09.595Z,7.60
2019-04-04T21:20:39.529Z,7.60
2019-04-04T21:23:09.409Z,7.70
2019-04-04T21:25:39.256Z,7.70
2019-04-04T21:28:09.129Z,7.70
2019-04-04T21:30:39.002Z,7.80
2019-04-04T21:33:08.951Z,7.70
2019-04-04T21:35:38.804Z,7.50
2019-04-04T21:38:08.765Z,7.60
2019-04-04T21:40:38.705Z,7.60
2019-04-04T21:43:08.653Z,7.50
2019-04-04T21:45:38.677Z,7.50
2019-04-04T21:48:08.621Z,7.60
2019-04-04T21:50:38.629Z,7.50
2019-04-04T21:53:08.595Z,7.50
2019-04-04T21:55:38.511Z,7.50
2019-04-04T21:58:08.456Z,7.50
2019-04-04T22:00:41.849Z,7.50
2019-04-04T22:03:12.237Z,7.50
2019-04-04T22:05:42.148Z,7.50
2019-04-04T22:08:12.009Z,7.20
2019-04-04T22:10:41.918Z,7.20
2019-04-04T22:13:11.817Z,7.30
2019-04-04T22:15:41.911Z,7.40
2019-04-04T22:18:11.842Z,7.40
2019-04-04T22:20:41.710Z,7.40
2019-04-04T22:23:12.640Z,7.20
2019-04-04T22:25:42.510Z,7.30
2019-04-04T22:28:12.453Z,7.30
2019-04-04T22:30:43.158Z,7.40
2019-04-04T22:33:13.253Z,7.40
2019-04-04T22:35:43.127Z,7.50
2019-04-04T22:38:13.043Z,7.40
2019-04-04T22:40:42.966Z,7.40
2019-04-04T22:43:12.850Z,7.40
2019-04-04T22:45:42.740Z,7.40
2019-04-04T22:48:12.606Z,7.30
2019-04-04T22:50:54.839Z,7.20
2019-04-04T22:53:25.715Z,7.20
2019-04-04T22:55:55.624Z,7.20
2019-04-04T22:58:28.707Z,7.20
2019-04-04T23:00:57.280Z,7.20
2019-04-04T23:03:28.954Z,7.20
2019-04-04T23:05:59.034Z,7.30
2019-04-04T23:08:29.062Z,7.30
2019-04-04T23:10:58.988Z,7.30
2019-04-04T23:13:30.971Z,7.30
2019-04-04T23:16:00.922Z,7.20
2019-04-04T23:18:30.914Z,7.20
2019-04-04T23:21:00.873Z,7.10
2019-04-04T23:23:30.776Z,7.10
2019-04-04T23:26:00.973Z,7.10
2019-04-04T23:28:30.905Z,7.10
2019-04-04T23:31:02.802Z,7.10
2019-04-04T23:33:32.820Z,7.00
2019-04-04T23:36:02.786Z,7.00
2019-04-04T23:38:32.767Z,6.90
2019-04-04T23:41:02.754Z,6.90
2019-04-04T23:43:32.679Z,6.90
2019-04-04T23:46:02.570Z,6.90
2019-04-04T23:48:33.431Z,6.90
2019-04-04T23:51:03.475Z,6.80
2019-04-04T23:53:33.365Z,6.80
2019-04-04T23:56:03.392Z,6.80
2019-04-04T23:58:33.343Z,6.80
